createdAt,value
2018-04-19T00:00:24.588Z,23.47
2018-04-19T00:02:52.055Z,21.77
2018-04-19T00:05:19.527Z,20.43
2018-04-19T00:07:47.780Z,20.17
2018-04-19T00:10:15.259Z,24.07
2018-04-19T00:12:42.739Z,20.20
2018-04-19T00:15:10.984Z,24.80
2018-04-19T00:17:38.448Z,25.83
2018-04-19T00:20:06.714Z,19.93
2018-04-19T00:22:34.221Z,26.13
2018-04-19T00:25:01.705Z,26.53
2018-04-19T00:27:29.183Z,32.60
2018-04-19T00:29:56.749Z,24.33
2018-04-19T00:32:25.024Z,21.73
2018-04-19T00:34:52.514Z,22.73
2018-04-19T00:37:20.048Z,30.27
2018-04-19T00:39:48.317Z,27.77
2018-04-19T00:42:15.784Z,23.50
2018-04-19T00:44:44.039Z,25.07
2018-04-19T00:47:11.619Z,27.57
2018-04-19T00:49:39.888Z,23.67
2018-04-19T00:52:08.163Z,27.23
2018-04-19T00:54:35.623Z,28.90
2018-04-19T00:57:03.940Z,24.47
2018-04-19T00:59:31.408Z,25.87
2018-04-19T01:01:58.892Z,27.10
2018-04-19T01:04:26.410Z,25.80
2018-04-19T01:06:53.911Z,31.80
2018-04-19T01:09:21.391Z,24.20
2018-04-19T01:11:49.642Z,22.43
2018-04-19T01:14:17.200Z,26.63
2018-04-19T01:16:44.687Z,22.50
2018-04-19T01:19:13.035Z,27.13
2018-04-19T01:21:40.514Z,26.50
2018-04-19T01:24:08.755Z,25.43
2018-04-19T01:26:36.284Z,30.63
2018-04-19T01:29:03.769Z,29.93
2018-04-19T01:31:31.263Z,32.00
2018-04-19T01:33:59.505Z,33.30
2018-04-19T01:36:27.080Z,25.20
2018-04-19T01:38:54.558Z,22.63
2018-04-19T01:41:22.807Z,30.13
2018-04-19T01:43:50.280Z,27.83
2018-04-19T01:46:18.530Z,33.83
2018-04-19T01:48:46.124Z,24.00
2018-04-19T01:51:14.385Z,29.40
2018-04-19T01:53:42.637Z,25.70
2018-04-19T01:56:10.122Z,30.23
2018-04-19T01:58:38.370Z,30.43
2018-04-19T02:01:05.948Z,32.23
2018-04-19T02:03:33.505Z,32.40
2018-04-19T02:06:01.065Z,27.50
2018-04-19T02:08:28.535Z,26.10
2018-04-19T02:10:56.763Z,23.20
2018-04-19T02:13:24.247Z,31.47
2018-04-19T02:15:51.815Z,25.60
2018-04-19T02:18:19.291Z,25.47
2018-04-19T02:20:47.554Z,29.97
2018-04-19T02:23:15.815Z,27.50
2018-04-19T02:25:43.324Z,26.07
2018-04-19T02:28:10.831Z,26.30
2018-04-19T02:30:38.312Z,25.60
2018-04-19T02:33:06.582Z,28.10
2018-04-19T02:35:34.133Z,24.10
2018-04-19T02:38:01.684Z,27.20
2018-04-19T02:40:29.243Z,27.50
2018-04-19T02:42:56.795Z,27.33
2018-04-19T02:45:24.269Z,24.70
2018-04-19T02:47:52.531Z,21.53
2018-04-19T02:50:20.007Z,25.77
2018-04-19T02:52:48.240Z,26.87
2018-04-19T02:55:15.739Z,24.93
2018-04-19T02:57:44.049Z,24.90
2018-04-19T03:00:11.528Z,21.77
2018-04-19T03:02:39.120Z,32.33
2018-04-19T03:05:06.595Z,25.83
2018-04-19T03:07:34.847Z,33.77
2018-04-19T03:10:02.414Z,25.17
2018-04-19T03:12:29.922Z,27.80
2018-04-19T03:14:57.409Z,24.03
2018-04-19T03:17:24.907Z,27.10
2018-04-19T03:19:53.144Z,30.33
2018-04-19T03:22:20.611Z,26.90
2018-04-19T03:24:48.090Z,22.43
2018-04-19T03:27:16.322Z,33.73
2018-04-19T03:29:43.795Z,25.60
2018-04-19T03:32:11.259Z,27.80
2018-04-19T03:34:38.766Z,22.90
2018-04-19T03:37:06.283Z,30.97
2018-04-19T03:39:34.530Z,28.27
2018-04-19T03:42:02.014Z,27.50
2018-04-19T03:44:29.487Z,27.10
2018-04-19T03:46:57.727Z,22.57
2018-04-19T03:49:25.196Z,31.27
2018-04-19T03:51:52.750Z,28.67
2018-04-19T03:54:20.239Z,27.20
2018-04-19T03:56:48.475Z,21.73
2018-04-19T03:59:16.039Z,28.17
2018-04-19T04:01:44.317Z,25.40
2018-04-19T04:04:11.807Z,25.20
2018-04-19T04:06:39.280Z,23.63
2018-04-19T04:09:06.755Z,26.50
2018-04-19T04:11:34.256Z,26.40
2018-04-19T04:14:01.739Z,26.70
2018-04-19T04:16:41.208Z,27.43
2018-04-19T04:19:20.688Z,32.07
2018-04-19T04:24:47.696Z,27.80
2018-04-19T04:27:15.171Z,25.90
2018-04-19T04:29:42.659Z,28.90
2018-04-19T04:32:10.219Z,29.83
2018-04-19T04:34:37.679Z,26.60
2018-04-19T04:37:05.249Z,27.43
2018-04-19T04:39:33.519Z,33.83
2018-04-19T04:42:00.995Z,26.63
2018-04-19T04:44:29.239Z,30.33
2018-04-19T04:46:56.724Z,28.37
2018-04-19T04:49:25.113Z,26.23
2018-04-19T04:51:52.562Z,33.00
2018-04-19T04:54:20.059Z,26.30
2018-04-19T04:56:47.551Z,28.83
2018-04-19T04:59:15.111Z,27.53
2018-04-19T05:01:42.615Z,25.60
2018-04-19T05:04:10.117Z,29.27
2018-04-19T05:06:37.630Z,27.97
2018-04-19T05:09:05.092Z,29.53
2018-04-19T05:11:32.564Z,30.23
2018-04-19T05:14:00.043Z,29.60
2018-04-19T05:16:27.515Z,34.50
2018-04-19T05:18:54.990Z,26.20
2018-04-19T05:21:23.219Z,29.07
2018-04-19T05:23:50.746Z,30.90
2018-04-19T05:26:18.299Z,36.27
2018-04-19T05:28:46.511Z,34.10
2018-04-19T05:31:13.997Z,32.03
2018-04-19T05:33:42.234Z,36.37
2018-04-19T05:36:09.739Z,36.93
2018-04-19T05:38:37.988Z,37.73
2018-04-19T05:41:05.527Z,31.17
2018-04-19T05:43:33.008Z,36.70
2018-04-19T05:46:00.488Z,41.70
2018-04-19T05:48:28.715Z,30.67
2018-04-19T05:50:56.411Z,40.47
2018-04-19T05:53:23.835Z,29.97
2018-04-19T05:55:51.314Z,31.43
2018-04-19T05:58:18.800Z,36.43
2018-04-19T06:00:47.027Z,39.03
2018-04-19T06:03:14.510Z,33.60
2018-04-19T06:05:42.065Z,37.60
2018-04-19T06:08:09.531Z,33.17
2018-04-19T06:10:37.775Z,35.63
2018-04-19T06:13:05.360Z,28.53
2018-04-19T06:15:32.917Z,31.50
2018-04-19T06:18:00.457Z,30.73
2018-04-19T06:20:28.896Z,32.90
2018-04-19T06:22:56.378Z,28.23
2018-04-19T06:25:23.871Z,28.73
2018-04-19T06:27:51.476Z,33.37
2018-04-19T06:30:18.960Z,24.47
2018-04-19T06:32:46.441Z,32.17
2018-04-19T06:35:14.681Z,27.67
2018-04-19T06:37:42.350Z,27.10
2018-04-19T06:40:09.824Z,24.90
2018-04-19T06:42:37.322Z,21.23
2018-04-19T06:45:04.804Z,23.33
2018-04-19T06:47:32.274Z,27.00
2018-04-19T06:49:59.739Z,29.53
2018-04-19T06:52:27.228Z,26.93
2018-04-19T06:54:54.789Z,29.10
2018-04-19T06:57:22.265Z,30.83
2018-04-19T06:59:49.772Z,28.27
2018-04-19T07:02:17.252Z,21.10
2018-04-19T07:04:44.733Z,30.27
2018-04-19T07:07:12.963Z,27.37
2018-04-19T07:09:40.444Z,20.23
2018-04-19T07:12:07.935Z,20.40
2018-04-19T07:14:35.423Z,21.37
2018-04-19T07:17:02.963Z,19.37
2018-04-19T07:19:30.589Z,16.83
2018-04-19T07:21:58.951Z,18.60
2018-04-19T07:24:28.066Z,19.40
2018-04-19T07:26:56.440Z,21.03
2018-04-19T07:29:24.803Z,19.30
2018-04-19T07:31:52.289Z,18.50
2018-04-19T07:34:19.869Z,19.97
2018-04-19T07:36:47.431Z,19.60
2018-04-19T07:39:15.027Z,20.20
2018-04-19T07:41:44.124Z,14.70
2018-04-19T07:44:11.774Z,17.30
2018-04-19T07:46:39.473Z,20.87
2018-04-19T07:49:07.925Z,24.23
2018-04-19T07:51:35.451Z,17.73
2018-04-19T07:54:03.070Z,18.00
2018-04-19T07:56:31.429Z,16.83
2018-04-19T07:58:58.973Z,16.87
2018-04-19T08:01:26.537Z,17.10
2018-04-19T08:03:54.125Z,12.93
2018-04-19T08:06:22.402Z,14.90
2018-04-19T08:08:50.811Z,12.43
2018-04-19T08:11:18.359Z,19.07
2018-04-19T08:13:46.633Z,19.23
2018-04-19T08:16:14.201Z,17.97
2018-04-19T08:18:41.664Z,17.90
2018-04-19T08:21:09.127Z,20.47
2018-04-19T08:23:36.583Z,22.10
2018-04-19T08:26:04.071Z,15.40
2018-04-19T08:28:31.530Z,14.63
2018-04-19T08:30:59.090Z,15.10
2018-04-19T08:33:26.606Z,18.17
2018-04-19T08:35:54.086Z,13.10
2018-04-19T08:38:21.559Z,18.23
2018-04-19T08:40:49.135Z,15.37
2018-04-19T08:43:16.602Z,19.60
2018-04-19T08:45:44.835Z,12.57
2018-04-19T08:48:12.330Z,10.97
2018-04-19T08:50:39.838Z,14.07
2018-04-19T08:53:07.322Z,18.77
2018-04-19T08:55:34.883Z,19.47
2018-04-19T08:58:03.131Z,12.87
2018-04-19T09:00:30.593Z,16.30
2018-04-19T09:02:58.435Z,14.43
2018-04-19T09:05:26.404Z,16.67
2018-04-19T09:07:54.277Z,16.23
2018-04-19T09:10:24.864Z,17.00
2018-04-19T09:12:53.726Z,14.60
2018-04-19T09:15:21.701Z,16.37
2018-04-19T09:17:50.350Z,13.97
2018-04-19T09:20:18.319Z,14.27
2018-04-19T09:22:45.832Z,12.40
2018-04-19T09:25:14.059Z,18.40
2018-04-19T09:27:41.534Z,19.30
2018-04-19T09:30:08.996Z,13.23
2018-04-19T09:32:36.460Z,14.37
2018-04-19T09:35:03.970Z,14.90
2018-04-19T09:37:31.471Z,9.00
2018-04-19T09:39:59.751Z,21.60
2018-04-19T09:42:27.330Z,11.77
2018-04-19T09:44:55.576Z,14.27
2018-04-19T09:47:23.043Z,15.43
2018-04-19T09:49:50.520Z,12.63
2018-04-19T09:52:18.740Z,14.73
2018-04-19T09:54:46.238Z,13.00
2018-04-19T09:57:13.803Z,13.10
2018-04-19T09:59:41.268Z,16.87
2018-04-19T10:02:09.509Z,12.60
2018-04-19T10:04:36.966Z,12.40
2018-04-19T10:07:04.538Z,10.80
2018-04-19T10:09:32.812Z,9.40
2018-04-19T10:12:00.275Z,15.43
2018-04-19T10:14:28.517Z,11.60
2018-04-19T10:16:56.010Z,21.47
2018-04-19T10:19:23.509Z,13.83
2018-04-19T10:21:51.408Z,12.00
2018-04-19T10:24:18.874Z,11.40
2018-04-19T10:26:46.440Z,13.53
2018-04-19T10:29:14.712Z,13.97
2018-04-19T10:31:42.275Z,13.30
2018-04-19T10:34:11.263Z,14.90
2018-04-19T10:36:39.621Z,17.30
2018-04-19T10:39:07.281Z,14.63
2018-04-19T10:41:34.882Z,11.90
2018-04-19T10:44:03.564Z,11.70
2018-04-19T10:46:31.803Z,15.23
2018-04-19T10:48:59.312Z,12.43
2018-04-19T10:51:27.673Z,9.93
2018-04-19T10:53:55.930Z,9.30
2018-04-19T10:56:23.398Z,10.23
2018-04-19T10:58:50.905Z,10.77
2018-04-19T11:01:18.407Z,10.83
2018-04-19T11:03:46.641Z,13.70
2018-04-19T11:06:14.108Z,10.43
2018-04-19T11:08:41.603Z,15.67
2018-04-19T11:11:09.847Z,12.17
2018-04-19T11:13:37.307Z,12.37
2018-04-19T11:16:04.914Z,12.10
2018-04-19T11:18:33.139Z,8.87
2018-04-19T11:21:00.622Z,11.50
2018-04-19T11:23:29.595Z,8.03
2018-04-19T11:25:57.051Z,16.10
2018-04-19T11:28:24.620Z,11.37
2018-04-19T11:30:53.522Z,12.77
2018-04-19T11:33:21.041Z,9.03
2018-04-19T11:35:48.516Z,8.50
2018-04-19T11:38:16.013Z,11.17
2018-04-19T11:40:44.236Z,18.20
2018-04-19T11:43:11.707Z,8.20
2018-04-19T11:45:39.202Z,6.97
2018-04-19T11:48:07.462Z,10.63
2018-04-19T11:50:35.005Z,12.67
2018-04-19T11:53:02.520Z,7.33
2018-04-19T11:55:29.989Z,16.50
2018-04-19T11:57:57.471Z,10.30
2018-04-19T12:00:24.944Z,13.50
2018-04-19T12:02:52.480Z,12.50
2018-04-19T12:05:19.948Z,10.30
2018-04-19T12:07:47.441Z,10.13
2018-04-19T12:10:15.668Z,12.40
2018-04-19T12:12:43.201Z,8.83
2018-04-19T12:15:10.708Z,9.50
2018-04-19T12:17:38.267Z,9.37
2018-04-19T12:20:06.504Z,10.70
2018-04-19T12:22:33.988Z,9.00
2018-04-19T12:25:02.224Z,10.47
2018-04-19T12:27:29.715Z,7.37
2018-04-19T12:29:57.177Z,7.73
2018-04-19T12:32:25.415Z,13.53
2018-04-19T12:34:52.899Z,10.07
2018-04-19T12:37:20.471Z,10.20
2018-04-19T12:39:48.092Z,8.67
2018-04-19T12:42:15.554Z,6.93
2018-04-19T12:44:43.107Z,9.70
2018-04-19T12:47:10.571Z,6.57
2018-04-19T12:49:38.047Z,6.83
2018-04-19T12:52:06.171Z,5.50
2018-04-19T12:54:33.645Z,7.00
2018-04-19T12:57:01.111Z,8.90
2018-04-19T12:59:28.606Z,9.23
2018-04-19T13:01:56.173Z,6.37
2018-04-19T13:04:23.784Z,9.30
2018-04-19T13:06:51.265Z,12.40
2018-04-19T13:09:18.736Z,7.50
2018-04-19T13:11:46.318Z,10.33
2018-04-19T13:14:14.571Z,12.00
2018-04-19T13:16:42.060Z,12.33
2018-04-19T13:19:10.300Z,11.33
2018-04-19T13:21:38.286Z,9.63
2018-04-19T13:24:05.747Z,6.17
2018-04-19T13:26:34.003Z,15.87
2018-04-19T13:29:02.298Z,6.23
2018-04-19T13:31:30.547Z,11.80
2018-04-19T13:33:58.112Z,13.07
2018-04-19T13:36:25.569Z,7.20
2018-04-19T13:38:53.128Z,10.13
2018-04-19T13:41:20.583Z,4.90
2018-04-19T13:43:48.047Z,8.63
2018-04-19T13:46:15.599Z,7.23
2018-04-19T13:48:43.200Z,10.63
2018-04-19T13:51:11.399Z,5.90
2018-04-19T13:53:38.883Z,7.27
2018-04-19T13:56:06.355Z,4.87
2018-04-19T13:58:33.819Z,8.20
2018-04-19T14:01:01.318Z,9.87
2018-04-19T14:03:28.817Z,7.07
2018-04-19T14:05:56.279Z,5.70
2018-04-19T14:08:23.750Z,8.83
2018-04-19T14:10:51.979Z,12.10
2018-04-19T14:13:19.468Z,5.60
2018-04-19T14:15:46.915Z,10.70
2018-04-19T14:18:14.387Z,9.00
2018-04-19T14:20:41.945Z,5.63
2018-04-19T14:23:09.415Z,7.60
2018-04-19T14:25:37.643Z,6.23
2018-04-19T14:28:05.123Z,9.10
2018-04-19T14:30:32.659Z,8.60
2018-04-19T14:33:00.127Z,6.83
2018-04-19T14:35:27.717Z,6.10
2018-04-19T14:37:55.179Z,7.87
2018-04-19T14:40:23.434Z,6.70
2018-04-19T14:42:52.451Z,5.43
2018-04-19T14:45:20.761Z,3.00
2018-04-19T14:47:48.226Z,9.83
2018-04-19T14:50:15.715Z,3.97
2018-04-19T14:52:43.271Z,4.33
2018-04-19T14:55:10.739Z,5.60
2018-04-19T14:57:38.208Z,4.00
2018-04-19T15:00:06.440Z,4.70
2018-04-19T15:02:33.899Z,4.60
2018-04-19T15:05:01.359Z,5.80
2018-04-19T15:07:28.830Z,7.43
2018-04-19T15:09:56.287Z,4.30
2018-04-19T15:12:24.567Z,3.93
2018-04-19T15:14:52.023Z,3.97
2018-04-19T15:17:19.524Z,5.50
2018-04-19T15:19:47.040Z,8.00
2018-04-19T15:22:14.495Z,5.53
2018-04-19T15:24:42.054Z,3.03
2018-04-19T15:27:09.511Z,8.03
2018-04-19T15:29:37.760Z,6.33
2018-04-19T15:32:05.248Z,6.40
2018-04-19T15:34:32.905Z,6.03
2018-04-19T15:37:00.359Z,5.50
2018-04-19T15:39:27.826Z,7.63
2018-04-19T15:41:55.371Z,10.00
2018-04-19T15:44:22.827Z,2.90
2018-04-19T15:46:50.444Z,5.83
2018-04-19T15:49:17.908Z,8.10
2018-04-19T15:51:45.403Z,5.20
2018-04-19T15:54:13.693Z,7.13
2018-04-19T15:56:41.240Z,9.03
2018-04-19T15:59:08.806Z,3.57
2018-04-19T16:01:36.357Z,6.10
2018-04-19T16:04:04.631Z,12.13
2018-04-19T16:06:32.131Z,3.13
2018-04-19T16:08:59.702Z,6.63
2018-04-19T16:11:27.159Z,5.53
2018-04-19T16:13:54.639Z,2.63
2018-04-19T16:16:22.119Z,7.00
2018-04-19T16:18:50.384Z,4.50
2018-04-19T16:21:17.855Z,9.80
2018-04-19T16:23:45.306Z,5.53
2018-04-19T16:26:12.877Z,6.90
2018-04-19T16:28:40.339Z,4.50
2018-04-19T16:31:08.591Z,4.90
2018-04-19T16:33:36.114Z,7.73
2018-04-19T16:36:03.668Z,9.33
2018-04-19T16:38:31.120Z,7.10
2018-04-19T16:40:58.603Z,5.53
2018-04-19T16:43:26.072Z,9.77
2018-04-19T16:45:53.543Z,4.63
2018-04-19T16:48:21.102Z,8.00
2018-04-19T16:50:49.368Z,11.70
2018-04-19T16:53:16.841Z,6.33
2018-04-19T16:55:45.142Z,8.33
2018-04-19T16:58:13.367Z,8.60
2018-04-19T17:00:40.831Z,14.00
2018-04-19T17:03:08.398Z,6.17
2018-04-19T17:05:35.967Z,8.20
2018-04-19T17:08:04.186Z,5.30
2018-04-19T17:10:31.655Z,8.00
2018-04-19T17:12:59.125Z,12.50
2018-04-19T17:15:26.661Z,5.63
2018-04-19T17:17:54.119Z,4.87
2018-04-19T17:20:21.595Z,9.07
2018-04-19T17:22:49.067Z,6.00
2018-04-19T17:25:16.636Z,3.13
2018-04-19T17:27:44.183Z,7.03
2018-04-19T17:30:11.748Z,5.57
2018-04-19T17:32:39.391Z,7.53
2018-04-19T17:35:06.863Z,4.73
2018-04-19T17:37:34.411Z,6.60
2018-04-19T17:40:01.979Z,4.00
2018-04-19T17:42:29.440Z,5.83
2018-04-19T17:44:57.023Z,5.00
2018-04-19T17:47:25.248Z,4.33
2018-04-19T17:49:52.723Z,8.07
2018-04-19T17:52:20.195Z,6.90
2018-04-19T17:54:47.751Z,6.50
2018-04-19T17:57:15.207Z,6.10
2018-04-19T17:59:42.777Z,10.00
2018-04-19T18:02:11.032Z,7.13
2018-04-19T18:04:38.504Z,6.60
2018-04-19T18:07:05.974Z,8.33
2018-04-19T18:09:34.195Z,5.93
2018-04-19T18:12:01.667Z,6.47
2018-04-19T18:14:29.118Z,9.40
2018-04-19T18:16:56.613Z,4.30
2018-04-19T18:19:24.077Z,5.00
2018-04-19T18:21:52.310Z,6.40
2018-04-19T18:24:19.767Z,8.13
2018-04-19T18:26:47.257Z,3.97
2018-04-19T18:29:15.522Z,12.90
2018-04-19T18:31:43.084Z,6.17
2018-04-19T18:34:10.535Z,3.80
2018-04-19T18:36:37.999Z,10.37
2018-04-19T18:39:05.492Z,7.30
2018-04-19T18:41:32.999Z,7.53
2018-04-19T18:44:00.464Z,6.57
2018-04-19T18:46:27.974Z,9.53
2018-04-19T18:48:55.432Z,4.10
2018-04-19T18:51:22.948Z,7.43
2018-04-19T18:53:50.404Z,5.90
2018-04-19T18:56:18.009Z,5.93
2018-04-19T18:58:45.488Z,7.73
2018-04-19T19:01:12.991Z,8.87
2018-04-19T19:03:41.270Z,8.07
2018-04-19T19:06:08.699Z,10.27
2018-04-19T19:08:36.259Z,7.97
2018-04-19T19:11:03.983Z,7.93
2018-04-19T19:13:31.451Z,8.53
2018-04-19T19:16:13.798Z,5.20
2018-04-19T19:18:53.771Z,13.07
2018-04-19T19:21:21.229Z,8.17
2018-04-19T19:23:48.746Z,6.07
2018-04-19T19:26:16.203Z,5.60
2018-04-19T19:28:43.721Z,8.40
2018-04-19T19:31:11.182Z,12.13
2018-04-19T19:33:38.645Z,7.77
2018-04-19T19:36:06.135Z,8.67
2018-04-19T19:38:33.598Z,11.63
2018-04-19T19:41:01.906Z,9.77
2018-04-19T19:43:29.425Z,11.80
2018-04-19T19:45:56.892Z,6.80
2018-04-19T19:48:25.143Z,4.40
2018-04-19T19:50:52.614Z,5.83
2018-04-19T19:53:20.075Z,6.43
2018-04-19T19:55:47.736Z,6.57
2018-04-19T19:58:15.211Z,6.17
2018-04-19T20:00:43.456Z,6.73
2018-04-19T20:03:11.010Z,7.97
2018-04-19T20:05:38.471Z,5.13
2018-04-19T20:08:05.955Z,5.90
2018-04-19T20:10:34.231Z,11.43
2018-04-19T20:13:02.484Z,12.67
2018-04-19T20:15:29.960Z,13.40
2018-04-19T20:17:58.187Z,7.43
2018-04-19T20:20:25.673Z,9.90
2018-04-19T20:22:53.123Z,6.20
2018-04-19T20:25:20.648Z,3.50
2018-04-19T20:27:48.210Z,7.97
2018-04-19T20:30:15.675Z,9.43
2018-04-19T20:32:43.143Z,6.13
2018-04-19T20:35:10.610Z,9.73
2018-04-19T20:37:39.616Z,5.93
2018-04-19T20:40:07.086Z,6.93
2018-04-19T20:42:35.361Z,8.93
2018-04-19T20:45:03.596Z,8.23
2018-04-19T20:47:31.093Z,6.53
2018-04-19T20:49:59.323Z,8.37
2018-04-19T20:52:26.818Z,10.03
2018-04-19T20:54:54.279Z,3.40
2018-04-19T20:57:22.578Z,9.50
2018-04-19T20:59:50.046Z,4.37
2018-04-19T21:02:17.507Z,5.97
2018-04-19T21:04:44.984Z,8.17
2018-04-19T21:07:12.443Z,7.10
2018-04-19T21:09:39.907Z,7.23
2018-04-19T21:12:07.486Z,13.83
2018-04-19T21:14:34.964Z,6.47
2018-04-19T21:17:03.192Z,5.17
2018-04-19T21:19:30.647Z,7.07
2018-04-19T21:21:58.122Z,11.40
2018-04-19T21:24:25.603Z,13.73
2018-04-19T21:26:53.076Z,5.63
2018-04-19T21:29:20.541Z,7.50
2018-04-19T21:31:48.029Z,7.53
2018-04-19T21:34:15.535Z,5.57
2018-04-19T21:36:43.790Z,20.20
2018-04-19T21:39:11.263Z,8.70
2018-04-19T21:41:39.508Z,6.67
2018-04-19T21:44:06.977Z,8.07
2018-04-19T21:46:34.599Z,10.77
2018-04-19T21:49:02.067Z,10.83
2018-04-19T21:51:29.538Z,8.40
2018-04-19T21:53:57.005Z,5.33
2018-04-19T21:56:24.459Z,5.20
2018-04-19T21:58:52.018Z,8.23
2018-04-19T22:01:20.247Z,9.10
2018-04-19T22:03:47.731Z,6.13
2018-04-19T22:06:15.209Z,7.60
2018-04-19T22:08:42.767Z,8.27
2018-04-19T22:11:10.379Z,11.70
2018-04-19T22:13:37.834Z,13.37
2018-04-19T22:16:05.332Z,8.77
2018-04-19T22:18:33.563Z,9.13
2018-04-19T22:21:01.040Z,6.73
2018-04-19T22:23:28.532Z,7.00
2018-04-19T22:25:56.009Z,15.57
2018-04-19T22:28:24.260Z,6.50
2018-04-19T22:30:51.744Z,5.30
2018-04-19T22:33:20.047Z,8.90
2018-04-19T22:35:47.526Z,9.27
2018-04-19T22:38:15.006Z,13.90
2018-04-19T22:40:42.467Z,12.67
2018-04-19T22:43:09.947Z,9.17
2018-04-19T22:45:38.175Z,9.30
2018-04-19T22:48:05.663Z,11.70
2018-04-19T22:50:33.910Z,13.53
2018-04-19T22:53:01.483Z,12.97
2018-04-19T22:55:29.052Z,15.23
2018-04-19T22:57:56.719Z,9.67
2018-04-19T23:00:26.105Z,7.10
2018-04-19T23:02:53.571Z,7.30
2018-04-19T23:05:21.092Z,7.70
2018-04-19T23:07:49.312Z,12.47
2018-04-19T23:10:17.554Z,9.50
2018-04-19T23:12:45.027Z,15.67
2018-04-19T23:15:12.497Z,10.17
2018-04-19T23:17:40.068Z,9.67
2018-04-19T23:20:07.534Z,10.97
2018-04-19T23:22:35.783Z,10.77
2018-04-19T23:25:03.308Z,11.73
2018-04-19T23:27:31.499Z,10.80
2018-04-19T23:29:58.956Z,8.93
2018-04-19T23:32:26.441Z,12.80
2018-04-19T23:34:54.687Z,9.20
2018-04-19T23:37:22.262Z,8.57
2018-04-19T23:39:49.835Z,9.50
2018-04-19T23:42:18.076Z,14.03
2018-04-19T23:44:45.537Z,10.37
2018-04-19T23:47:13.000Z,9.50
2018-04-19T23:49:41.994Z,12.63
2018-04-19T23:52:10.966Z,8.27
2018-04-19T23:54:38.447Z,10.50
2018-04-19T23:57:05.911Z,13.13
2018-04-19T23:59:33.403Z,11.70
